OPLA/LHE METAR and TAF weather

Enter ICAO airport designator
Station Type Date Time Source
OPLA METAR 2021/03/08 15:59 UTC NOAA

OPLA 081559Z 36012KT 5000 FU NSC 21/11 Q1012 NOSIG RMK QFE985 RMK A29.91


Station Type Date Time Source
OPLA Decoded METAR 2021/03/08 15:59 UTC NOAA

Lahore Airport, Pakistan (OPLA) 31-31N 074-24E 217M
Mar 08, 2021 - 10:59 AM EST / 2021.03.08 1559 UTC
Wind: from the N (360 degrees) at 14 MPH (12 KT):0
Visibility: 3 mile(s):0
Weather: smoke
Temperature: 69 F (21 C)
Dew Point: 51 F (11 C)
Relative Humidity: 52%
Pressure (altimeter): 29.88 in. Hg (1012 hPa)
ob: OPLA 081559Z 36012KT 5000 FU NSC 21/11 Q1012 NOSIG RMK QFE985 RMK A29.91
cycle: 16

Station Type Date Time Source
OPLA TAF 2021/03/08 18:51 UTC NOAA

TAF TAF COR OPLA 081545Z 0818/0924 36010KT 4000 FU NSC TX29/0910Z TN15/0901Z
TEMPO 0908/0914 01020G30KT 6000

Example: see airport list